createdAt,value
2023-07-15T00:01:24.482Z,70.18
2023-07-15T00:03:52.987Z,69.98
2023-07-15T00:06:22.138Z,70.71
2023-07-15T00:08:49.314Z,71.79
2023-07-15T00:11:22.129Z,71.85
2023-07-15T00:13:48.624Z,72.44
2023-07-15T00:16:15.451Z,72.48
2023-07-15T00:18:42.089Z,72.61
2023-07-15T00:21:21.324Z,71.77
2023-07-15T00:23:54.196Z,72.30
2023-07-15T00:26:22.237Z,73.39
2023-07-15T00:28:51.238Z,73.82
2023-07-15T00:31:19.436Z,74.35
2023-07-15T00:33:46.727Z,74.95
2023-07-15T00:36:14.640Z,75.32
2023-07-15T00:38:42.455Z,75.62
2023-07-15T00:41:18.204Z,75.86
2023-07-15T00:43:57.413Z,76.11
2023-07-15T00:46:29.547Z,76.72
2023-07-15T00:49:01.578Z,76.52
2023-07-15T00:51:29.291Z,76.19
2023-07-15T00:53:56.231Z,77.01
2023-07-15T00:56:24.020Z,79.38
2023-07-15T00:58:51.623Z,78.82
2023-07-15T01:01:18.197Z,78.98
2023-07-15T01:03:46.214Z,79.70
2023-07-15T01:06:15.964Z,79.15
2023-07-15T01:08:42.570Z,79.46
2023-07-15T01:11:10.714Z,78.78
2023-07-15T01:13:37.172Z,78.56
2023-07-15T01:16:03.763Z,78.69
2023-07-15T01:18:30.168Z,79.10
2023-07-15T01:21:00.478Z,79.26
2023-07-15T01:23:28.737Z,79.11
2023-07-15T01:25:56.247Z,78.63
2023-07-15T01:28:22.969Z,79.95
2023-07-15T01:30:49.645Z,79.82
2023-07-15T01:33:19.930Z,79.82
2023-07-15T01:35:49.092Z,79.79
2023-07-15T01:38:16.719Z,80.15
2023-07-15T01:40:43.994Z,80.37
2023-07-15T01:43:13.338Z,80.50
2023-07-15T01:45:40.652Z,81.45
2023-07-15T01:48:08.917Z,81.29
2023-07-15T01:50:38.714Z,81.23
2023-07-15T01:53:06.032Z,81.74
2023-07-15T01:55:32.751Z,81.35
2023-07-15T01:57:59.300Z,81.31
2023-07-15T02:00:25.794Z,82.07
2023-07-15T02:02:52.483Z,82.42
2023-07-15T02:05:19.051Z,82.53
2023-07-15T02:07:45.762Z,82.10
2023-07-15T02:10:12.259Z,82.83
2023-07-15T02:12:38.822Z,82.95
2023-07-15T02:15:06.033Z,82.93
2023-07-15T02:17:32.568Z,82.89
2023-07-15T02:20:00.613Z,82.65
2023-07-15T02:22:27.462Z,83.55
2023-07-15T02:24:54.338Z,84.27
2023-07-15T02:27:20.920Z,84.13
2023-07-15T02:29:47.306Z,84.11
2023-07-15T02:32:40.282Z,84.80
2023-07-15T02:35:11.686Z,84.02
2023-07-15T02:37:39.734Z,84.03
2023-07-15T02:40:07.398Z,83.95
2023-07-15T02:42:34.619Z,84.38
2023-07-15T02:45:08.993Z,84.89
2023-07-15T02:47:35.757Z,84.94
2023-07-15T02:50:08.917Z,85.65
2023-07-15T02:52:37.306Z,85.56
2023-07-15T02:55:05.681Z,85.93
2023-07-15T02:57:33.954Z,86.33
2023-07-15T03:00:01.429Z,86.41
2023-07-15T03:02:31.285Z,85.33
2023-07-15T03:04:57.748Z,86.23
2023-07-15T03:07:24.273Z,87.31
2023-07-15T03:09:50.802Z,86.53
2023-07-15T03:12:17.223Z,88.27
2023-07-15T03:14:43.992Z,86.67
2023-07-15T03:17:11.775Z,86.84
2023-07-15T03:19:38.639Z,86.71
2023-07-15T03:22:05.794Z,87.96
2023-07-15T03:24:32.288Z,89.28
2023-07-15T03:26:58.686Z,88.64
2023-07-15T03:29:25.261Z,88.09
2023-07-15T03:31:51.792Z,87.53
2023-07-15T03:34:19.491Z,84.94
2023-07-15T03:36:46.264Z,85.69
2023-07-15T03:39:12.708Z,85.85
2023-07-15T03:41:39.123Z,85.00
2023-07-15T03:44:05.544Z,85.87
2023-07-15T03:46:32.181Z,86.74
2023-07-15T03:48:58.636Z,86.57
2023-07-15T03:51:25.301Z,86.67
2023-07-15T03:53:51.753Z,87.73
2023-07-15T03:56:18.215Z,88.49
2023-07-15T03:58:44.623Z,88.09
2023-07-15T04:01:11.090Z,87.81
2023-07-15T04:03:38.175Z,88.41
2023-07-15T04:06:04.710Z,87.72
2023-07-15T04:08:31.290Z,87.33
2023-07-15T04:10:57.804Z,87.91
2023-07-15T04:13:24.244Z,87.91
2023-07-15T04:15:50.706Z,88.36
2023-07-15T04:18:18.009Z,89.13
2023-07-15T04:20:44.919Z,88.74
2023-07-15T04:23:11.480Z,88.86
2023-07-15T04:25:39.730Z,89.55
2023-07-15T04:28:06.340Z,89.28
2023-07-15T04:30:32.793Z,89.60
2023-07-15T04:32:59.315Z,89.22
2023-07-15T04:35:25.797Z,89.70
2023-07-15T04:37:52.235Z,88.85
2023-07-15T04:40:18.715Z,87.59
2023-07-15T04:42:46.713Z,84.46
2023-07-15T04:45:13.549Z,81.81
2023-07-15T04:47:40.539Z,78.44
2023-07-15T04:50:07.354Z,76.54
2023-07-15T04:52:33.773Z,74.20
2023-07-15T04:55:00.226Z,72.99
2023-07-15T04:57:26.689Z,70.69
2023-07-15T04:59:53.862Z,71.28
2023-07-15T05:02:20.401Z,70.43
2023-07-15T05:04:46.976Z,69.59
2023-07-15T05:07:13.428Z,67.17
2023-07-15T05:09:41.014Z,66.90
2023-07-15T05:12:07.872Z,65.88
2023-07-15T05:14:35.337Z,63.81
2023-07-15T05:17:01.746Z,63.00
2023-07-15T05:19:28.195Z,62.64
2023-07-15T05:21:54.849Z,61.29
2023-07-15T05:24:21.333Z,60.05
2023-07-15T05:26:47.905Z,61.10
2023-07-15T05:29:14.393Z,59.54
2023-07-15T05:31:40.924Z,58.98
2023-07-15T05:34:07.375Z,59.50
2023-07-15T05:36:33.859Z,62.10
2023-07-15T05:39:00.348Z,64.55
2023-07-15T05:41:28.038Z,64.34
2023-07-15T05:43:54.466Z,63.06
2023-07-15T05:46:20.892Z,61.23
2023-07-15T05:48:49.391Z,62.37
2023-07-15T05:51:16.823Z,61.54
2023-07-15T05:53:44.315Z,60.65
2023-07-15T05:56:10.774Z,59.01
2023-07-15T05:58:37.230Z,60.31
2023-07-15T06:01:05.167Z,62.00
2023-07-15T06:03:31.942Z,60.68
2023-07-15T06:06:03.112Z,59.54
2023-07-15T06:08:30.228Z,59.12
2023-07-15T06:10:56.946Z,58.13
2023-07-15T06:13:23.499Z,57.95
2023-07-15T06:15:51.616Z,58.70
2023-07-15T06:18:18.501Z,59.75
2023-07-15T06:20:48.083Z,59.70
2023-07-15T06:23:15.047Z,60.59
2023-07-15T06:25:41.531Z,60.26
2023-07-15T06:28:08.090Z,58.93
2023-07-15T06:30:34.705Z,59.42
2023-07-15T06:33:01.212Z,59.71
2023-07-15T06:35:27.653Z,59.37
2023-07-15T06:37:54.206Z,60.02
2023-07-15T06:40:20.699Z,60.52
2023-07-15T06:42:47.649Z,60.64
2023-07-15T06:45:14.264Z,61.28
2023-07-15T06:47:40.718Z,62.74
2023-07-15T06:50:08.040Z,62.60
2023-07-15T06:52:34.552Z,62.64
2023-07-15T06:55:00.960Z,62.91
2023-07-15T06:57:29.464Z,62.77
2023-07-15T06:59:56.002Z,60.66
2023-07-15T07:02:22.888Z,58.70
2023-07-15T07:04:49.437Z,60.15
2023-07-15T07:07:15.833Z,60.27
2023-07-15T07:09:42.253Z,61.15
2023-07-15T07:12:08.777Z,60.38
2023-07-15T07:14:35.377Z,59.34
2023-07-15T07:17:02.258Z,59.66
2023-07-15T07:19:28.683Z,59.82
2023-07-15T07:21:55.226Z,59.19
2023-07-15T07:24:22.454Z,59.43
2023-07-15T07:26:50.165Z,59.42
2023-07-15T07:29:16.704Z,59.57
2023-07-15T07:31:43.164Z,60.56
2023-07-15T07:34:09.597Z,60.34
2023-07-15T07:36:36.083Z,59.60
2023-07-15T07:39:02.504Z,59.45
2023-07-15T07:41:28.912Z,58.70
2023-07-15T07:43:55.555Z,58.84
2023-07-15T07:46:22.034Z,58.49
2023-07-15T07:48:48.470Z,58.06
2023-07-15T07:51:15.127Z,56.72
2023-07-15T07:53:41.792Z,58.31
2023-07-15T07:56:12.206Z,57.88
2023-07-15T07:58:42.112Z,57.52
2023-07-15T08:01:08.598Z,56.48
2023-07-15T08:03:35.256Z,57.16
2023-07-15T08:06:01.854Z,56.76
2023-07-15T08:08:28.309Z,55.15
2023-07-15T08:10:54.833Z,53.37
2023-07-15T08:13:21.246Z,54.36
2023-07-15T08:15:47.720Z,54.15
2023-07-15T08:18:14.487Z,54.28
2023-07-15T08:20:43.746Z,53.91
2023-07-15T08:23:10.458Z,52.79
2023-07-15T08:25:39.218Z,51.09
2023-07-15T08:28:09.079Z,51.72
2023-07-15T08:30:37.590Z,52.59
2023-07-15T08:33:06.042Z,52.67
2023-07-15T08:35:33.358Z,50.56
2023-07-15T08:37:59.967Z,51.30
2023-07-15T08:40:27.247Z,51.65
2023-07-15T08:42:54.492Z,51.20
2023-07-15T08:45:25.634Z,49.98
2023-07-15T08:47:52.270Z,50.17
2023-07-15T08:50:19.361Z,50.87
2023-07-15T08:52:46.679Z,50.99
2023-07-15T08:55:14.273Z,49.90
2023-07-15T08:57:40.985Z,49.95
2023-07-15T09:00:11.196Z,49.29
2023-07-15T09:02:39.322Z,50.84
2023-07-15T09:05:09.907Z,50.61
2023-07-15T09:07:56.812Z,50.32
2023-07-15T09:10:23.918Z,50.09
2023-07-15T09:12:55.161Z,51.46
2023-07-15T09:15:22.210Z,51.60
2023-07-15T09:17:59.003Z,54.57
2023-07-15T09:20:27.324Z,53.87
2023-07-15T09:22:58.837Z,54.64
2023-07-15T09:25:26.340Z,53.28
2023-07-15T09:27:54.350Z,53.35
2023-07-15T09:30:21.552Z,52.81
2023-07-15T09:32:48.602Z,55.65
2023-07-15T09:35:15.841Z,53.39
2023-07-15T09:37:42.541Z,55.23
2023-07-15T09:40:09.972Z,55.54
2023-07-15T09:43:05.740Z,55.99
2023-07-15T09:45:37.522Z,56.90
2023-07-15T09:48:13.117Z,57.22
2023-07-15T09:50:41.792Z,57.05
2023-07-15T09:53:08.972Z,57.75
2023-07-15T09:55:37.519Z,58.10
2023-07-15T09:58:10.802Z,58.71
2023-07-15T10:00:42.453Z,59.39
2023-07-15T10:03:16.548Z,58.66
2023-07-15T10:05:44.166Z,58.43
2023-07-15T10:08:10.740Z,58.61
2023-07-15T10:10:37.840Z,58.16
2023-07-15T10:13:04.659Z,58.83
2023-07-15T10:15:31.290Z,58.57
2023-07-15T10:17:57.803Z,58.43
2023-07-15T10:20:24.286Z,57.29
2023-07-15T10:22:51.978Z,56.41
2023-07-15T10:25:19.596Z,57.29
2023-07-15T10:27:46.120Z,56.81
2023-07-15T10:30:18.925Z,56.27
2023-07-15T10:33:04.956Z,56.67
2023-07-15T10:35:51.063Z,57.63
2023-07-15T10:38:32.649Z,57.21
2023-07-15T10:41:04.475Z,56.38
2023-07-15T10:43:38.064Z,55.52
2023-07-15T10:46:13.345Z,56.29
2023-07-15T10:48:41.194Z,56.50
2023-07-15T10:51:09.824Z,57.11
2023-07-15T10:53:37.284Z,63.30
2023-07-15T10:56:07.957Z,66.15
2023-07-15T10:58:37.176Z,63.85
2023-07-15T11:01:08.726Z,63.74
2023-07-15T11:03:37.129Z,62.70
2023-07-15T11:06:05.814Z,62.22
2023-07-15T11:08:34.920Z,61.86
2023-07-15T11:11:05.643Z,61.35
2023-07-15T11:13:36.517Z,61.62
2023-07-15T11:16:03.475Z,61.78
2023-07-15T11:18:30.041Z,61.91
2023-07-15T11:20:59.088Z,62.11
2023-07-15T11:23:28.814Z,61.76
2023-07-15T11:25:55.575Z,61.88
2023-07-15T11:28:22.347Z,62.03
2023-07-15T11:30:49.881Z,62.76
2023-07-15T11:33:17.254Z,62.46
2023-07-15T11:35:46.126Z,62.70
2023-07-15T11:38:12.833Z,62.93
2023-07-15T11:40:56.671Z,62.03
2023-07-15T11:43:25.070Z,61.57
2023-07-15T11:45:58.129Z,61.31
2023-07-15T11:48:31.544Z,62.07
2023-07-15T11:51:05.270Z,60.74
2023-07-15T11:53:33.112Z,60.89
2023-07-15T11:56:00.208Z,61.78
2023-07-15T11:58:39.083Z,61.09
2023-07-15T12:01:12.950Z,62.06
2023-07-15T12:03:41.313Z,60.44
2023-07-15T12:06:18.828Z,59.90
2023-07-15T12:09:01.578Z,58.18
2023-07-15T12:11:29.041Z,58.01
2023-07-15T12:13:55.550Z,58.22
2023-07-15T12:16:22.864Z,58.82
2023-07-15T12:18:49.369Z,57.36
2023-07-15T12:21:15.818Z,56.51
2023-07-15T12:23:44.250Z,56.57
2023-07-15T12:26:11.235Z,56.81
2023-07-15T12:28:38.020Z,56.81
2023-07-15T12:31:04.698Z,57.03
2023-07-15T12:33:31.368Z,56.96
2023-07-15T12:35:59.854Z,57.38
2023-07-15T12:38:26.328Z,56.68
2023-07-15T12:40:54.060Z,56.88
2023-07-15T12:43:21.664Z,56.30
2023-07-15T12:45:48.460Z,56.48
2023-07-15T12:48:14.870Z,56.11
2023-07-15T12:50:41.299Z,56.51
2023-07-15T12:53:07.714Z,56.53
2023-07-15T12:55:34.188Z,56.55
2023-07-15T12:58:00.632Z,55.72
2023-07-15T13:00:27.183Z,55.93
2023-07-15T13:02:53.704Z,56.08
2023-07-15T13:05:20.388Z,55.81
2023-07-15T13:07:46.870Z,55.53
2023-07-15T13:10:13.448Z,56.26
2023-07-15T13:12:39.867Z,57.23
2023-07-15T13:15:06.863Z,57.80
2023-07-15T13:17:33.500Z,58.32
2023-07-15T13:20:01.040Z,57.77
2023-07-15T13:22:27.502Z,57.69
2023-07-15T13:24:53.978Z,58.19
2023-07-15T13:27:20.378Z,59.50
2023-07-15T13:29:46.814Z,59.58
2023-07-15T13:32:13.256Z,60.15
2023-07-15T13:34:39.690Z,68.80
2023-07-15T13:37:06.285Z,70.91
2023-07-15T13:39:34.206Z,71.76
2023-07-15T13:42:01.213Z,73.92
2023-07-15T13:44:28.401Z,71.63
2023-07-15T13:46:55.054Z,76.55
2023-07-15T13:49:21.487Z,79.35
2023-07-15T13:51:47.929Z,84.69
2023-07-15T13:54:14.411Z,88.47
2023-07-15T13:56:40.827Z,89.51
2023-07-15T13:59:07.244Z,90.47
2023-07-15T14:01:33.804Z,89.45
2023-07-15T14:04:00.317Z,91.98
2023-07-15T14:06:26.838Z,93.16
2023-07-15T14:08:53.285Z,94.05
2023-07-15T14:11:19.692Z,93.90
2023-07-15T14:13:46.141Z,94.86
2023-07-15T14:16:12.654Z,96.76
2023-07-15T14:18:39.253Z,97.86
2023-07-15T14:21:05.654Z,99.65
2023-07-15T14:23:32.143Z,98.80
2023-07-15T14:25:58.606Z,100.00
2023-07-15T14:28:26.396Z,100.00
2023-07-15T14:30:52.905Z,100.00
2023-07-15T14:33:19.422Z,100.00
2023-07-15T14:35:45.891Z,100.00
2023-07-15T14:38:13.977Z,100.00
2023-07-15T14:40:42.162Z,100.00
2023-07-15T14:43:09.327Z,100.00
2023-07-15T14:45:35.740Z,100.00
2023-07-15T14:48:02.259Z,100.00
2023-07-15T14:50:28.733Z,100.00
2023-07-15T14:52:56.637Z,100.00
2023-07-15T14:55:25.590Z,100.00
2023-07-15T14:57:52.152Z,100.00
2023-07-15T15:00:22.880Z,100.00
2023-07-15T15:02:49.717Z,100.00
2023-07-15T15:05:16.390Z,100.00
2023-07-15T15:07:42.829Z,100.00
2023-07-15T15:10:09.770Z,100.00
2023-07-15T15:12:36.225Z,100.00
2023-07-15T15:15:03.988Z,100.00
2023-07-15T15:17:30.512Z,100.00
2023-07-15T15:19:57.230Z,100.00
2023-07-15T15:22:23.760Z,100.00
2023-07-15T15:24:50.206Z,100.00
2023-07-15T15:27:16.602Z,100.00
2023-07-15T15:29:43.017Z,100.00
2023-07-15T15:32:09.594Z,100.00
2023-07-15T15:34:36.563Z,100.00
2023-07-15T15:37:03.116Z,100.00
2023-07-15T15:39:29.557Z,100.00
2023-07-15T15:41:56.103Z,100.00
2023-07-15T15:44:22.586Z,100.00
2023-07-15T15:46:49.218Z,100.00
2023-07-15T15:49:19.009Z,100.00
2023-07-15T15:51:45.518Z,100.00
2023-07-15T15:54:12.029Z,100.00
2023-07-15T15:56:39.237Z,100.00
2023-07-15T15:59:06.718Z,100.00
2023-07-15T16:01:33.305Z,100.00
2023-07-15T16:03:59.854Z,100.00
2023-07-15T16:06:26.346Z,100.00
2023-07-15T16:08:52.874Z,100.00
2023-07-15T16:11:19.544Z,100.00
2023-07-15T16:13:46.111Z,100.00
2023-07-15T16:16:12.779Z,100.00
2023-07-15T16:18:39.332Z,100.00
2023-07-15T16:21:05.789Z,100.00
2023-07-15T16:23:32.738Z,100.00
2023-07-15T16:25:59.152Z,100.00
2023-07-15T16:28:25.604Z,100.00
2023-07-15T16:30:52.075Z,100.00
2023-07-15T16:33:18.602Z,100.00
2023-07-15T16:35:45.235Z,100.00
2023-07-15T16:38:11.658Z,100.00
2023-07-15T16:40:38.226Z,100.00
2023-07-15T16:43:04.781Z,100.00
2023-07-15T16:45:31.217Z,100.00
2023-07-15T16:47:57.725Z,100.00
2023-07-15T16:50:24.192Z,100.00
2023-07-15T16:52:50.636Z,100.00
2023-07-15T16:55:17.200Z,100.00
2023-07-15T16:57:43.678Z,100.00
2023-07-15T17:00:11.427Z,100.00
2023-07-15T17:02:38.114Z,100.00
2023-07-15T17:05:04.907Z,100.00
2023-07-15T17:07:31.407Z,100.00
2023-07-15T17:09:58.736Z,100.00
2023-07-15T17:12:25.273Z,100.00
2023-07-15T17:14:51.758Z,100.00
2023-07-15T17:17:18.176Z,100.00
2023-07-15T17:19:44.603Z,100.00
2023-07-15T17:22:11.129Z,100.00
2023-07-15T17:24:37.559Z,100.00
2023-07-15T17:27:04.246Z,100.00
2023-07-15T17:29:30.712Z,100.00
2023-07-15T17:31:57.266Z,100.00
2023-07-15T17:34:23.791Z,100.00
2023-07-15T17:36:50.216Z,100.00
2023-07-15T17:39:16.698Z,100.00
2023-07-15T17:41:43.275Z,100.00
2023-07-15T17:44:09.702Z,100.00
2023-07-15T17:46:36.189Z,100.00
2023-07-15T17:49:02.684Z,100.00
2023-07-15T17:51:29.107Z,100.00
2023-07-15T17:53:55.704Z,100.00
2023-07-15T17:56:22.297Z,100.00
2023-07-15T17:58:48.824Z,100.00
2023-07-15T18:01:15.542Z,100.00
2023-07-15T18:03:42.284Z,100.00
2023-07-15T18:06:09.218Z,100.00
2023-07-15T18:08:35.703Z,100.00
2023-07-15T18:11:02.113Z,100.00
2023-07-15T18:13:29.479Z,100.00
2023-07-15T18:15:56.016Z,100.00
2023-07-15T18:18:22.543Z,100.00
2023-07-15T18:20:48.986Z,100.00
2023-07-15T18:23:15.460Z,100.00
2023-07-15T18:25:41.892Z,100.00
2023-07-15T18:28:08.366Z,100.00
2023-07-15T18:30:35.192Z,100.00
2023-07-15T18:33:01.739Z,100.00
2023-07-15T18:35:28.235Z,100.00
2023-07-15T18:37:54.678Z,100.00
2023-07-15T18:40:21.141Z,100.00
2023-07-15T18:42:47.535Z,100.00
2023-07-15T18:45:14.066Z,100.00
2023-07-15T18:47:40.523Z,100.00
2023-07-15T18:50:07.563Z,100.00
2023-07-15T18:52:33.970Z,100.00
2023-07-15T18:55:00.532Z,100.00
2023-07-15T18:57:27.016Z,100.00
2023-07-15T18:59:53.516Z,100.00
2023-07-15T19:02:19.976Z,100.00
2023-07-15T19:04:49.645Z,100.00
2023-07-15T19:07:16.086Z,100.00
2023-07-15T19:09:42.503Z,100.00
2023-07-15T19:12:09.773Z,100.00
2023-07-15T19:14:36.287Z,100.00
2023-07-15T19:17:02.874Z,100.00
2023-07-15T19:19:29.418Z,100.00
2023-07-15T19:21:55.829Z,100.00
2023-07-15T19:24:22.305Z,100.00
2023-07-15T19:26:48.736Z,100.00
2023-07-15T19:29:15.217Z,100.00
2023-07-15T19:31:41.689Z,100.00
2023-07-15T19:34:08.116Z,100.00
2023-07-15T19:36:34.564Z,100.00
2023-07-15T19:39:01.001Z,100.00
2023-07-15T19:41:27.438Z,100.00
2023-07-15T19:43:53.896Z,100.00
2023-07-15T19:46:20.830Z,100.00
2023-07-15T19:48:47.594Z,100.00
2023-07-15T19:51:14.055Z,100.00
2023-07-15T19:53:40.591Z,100.00
2023-07-15T19:56:07.418Z,100.00
2023-07-15T19:58:34.052Z,100.00
2023-07-15T20:01:00.498Z,100.00
2023-07-15T20:03:27.032Z,100.00
2023-07-15T20:05:53.519Z,100.00
2023-07-15T20:08:19.936Z,100.00
2023-07-15T20:10:46.449Z,100.00
2023-07-15T20:13:14.555Z,100.00
2023-07-15T20:15:42.832Z,100.00
2023-07-15T20:18:09.339Z,100.00
2023-07-15T20:20:35.851Z,100.00
2023-07-15T20:23:02.408Z,100.00
2023-07-15T20:25:28.942Z,100.00
2023-07-15T20:27:55.363Z,100.00
2023-07-15T20:30:21.842Z,100.00
2023-07-15T20:32:48.324Z,100.00
2023-07-15T20:35:16.625Z,100.00
2023-07-15T20:37:43.304Z,100.00
2023-07-15T20:40:10.468Z,100.00
2023-07-15T20:42:36.942Z,100.00
2023-07-15T20:45:03.599Z,100.00
2023-07-15T20:47:30.158Z,100.00
2023-07-15T20:49:56.690Z,100.00
2023-07-15T20:52:23.175Z,100.00
2023-07-15T20:54:49.814Z,100.00
2023-07-15T20:57:16.256Z,100.00
2023-07-15T20:59:42.681Z,100.00
2023-07-15T21:02:09.446Z,100.00
2023-07-15T21:04:36.041Z,100.00
2023-07-15T21:07:02.753Z,100.00
2023-07-15T21:09:29.180Z,100.00
2023-07-15T21:11:55.599Z,100.00
2023-07-15T21:14:22.197Z,100.00
2023-07-15T21:16:49.306Z,100.00
2023-07-15T21:19:16.066Z,100.00
2023-07-15T21:21:42.510Z,100.00
2023-07-15T21:24:08.935Z,100.00
2023-07-15T21:26:35.434Z,100.00
2023-07-15T21:29:02.087Z,100.00
2023-07-15T21:31:30.539Z,100.00
2023-07-15T21:34:00.191Z,100.00
2023-07-15T21:36:27.869Z,100.00
2023-07-15T21:38:54.401Z,100.00
2023-07-15T21:41:20.862Z,100.00
2023-07-15T21:43:47.275Z,100.00
2023-07-15T21:46:14.245Z,100.00
2023-07-15T21:48:41.005Z,100.00
2023-07-15T21:51:09.572Z,100.00
2023-07-15T21:53:36.022Z,100.00
2023-07-15T21:56:02.503Z,100.00
2023-07-15T21:58:29.504Z,100.00
2023-07-15T22:00:57.778Z,100.00
2023-07-15T22:03:24.337Z,100.00
2023-07-15T22:05:53.458Z,100.00
2023-07-15T22:08:19.878Z,100.00
2023-07-15T22:10:46.344Z,100.00
2023-07-15T22:13:12.755Z,100.00
2023-07-15T22:15:39.263Z,100.00
2023-07-15T22:18:05.825Z,100.00
2023-07-15T22:20:32.248Z,100.00
2023-07-15T22:22:58.677Z,100.00
2023-07-15T22:25:25.226Z,100.00
2023-07-15T22:27:51.670Z,100.00
2023-07-15T22:30:18.081Z,100.00
2023-07-15T22:32:44.538Z,100.00
2023-07-15T22:35:10.984Z,100.00
2023-07-15T22:37:37.404Z,100.00
2023-07-15T22:40:03.991Z,100.00
2023-07-15T22:42:30.402Z,100.00
2023-07-15T22:44:56.800Z,100.00
2023-07-15T22:47:23.262Z,100.00
2023-07-15T22:49:49.775Z,100.00
2023-07-15T22:52:16.174Z,100.00
2023-07-15T22:54:42.636Z,100.00
2023-07-15T22:57:10.037Z,100.00
2023-07-15T22:59:36.553Z,100.00
2023-07-15T23:02:04.450Z,100.00
2023-07-15T23:04:30.959Z,100.00
2023-07-15T23:07:00.187Z,100.00
2023-07-15T23:09:26.591Z,100.00
2023-07-15T23:11:53.075Z,100.00
2023-07-15T23:14:22.317Z,100.00
2023-07-15T23:16:49.651Z,100.00
2023-07-15T23:19:16.250Z,100.00
2023-07-15T23:21:42.732Z,100.00
2023-07-15T23:24:09.267Z,100.00
2023-07-15T23:26:35.679Z,100.00
2023-07-15T23:29:02.105Z,100.00
2023-07-15T23:31:28.635Z,100.00
2023-07-15T23:33:55.124Z,100.00
2023-07-15T23:36:21.617Z,100.00
2023-07-15T23:38:48.033Z,100.00
2023-07-15T23:41:20.464Z,100.00
2023-07-15T23:43:47.697Z,100.00
2023-07-15T23:46:14.931Z,100.00
2023-07-15T23:48:41.904Z,100.00
2023-07-15T23:51:08.963Z,100.00
2023-07-15T23:53:35.404Z,100.00
2023-07-15T23:56:01.914Z,100.00
2023-07-15T23:58:28.395Z,100.00
